Time;durP1;ratioP1;P1;durP2;ratioP2;P2;SDS_P1;SDS_P2;PMS_P1;PMS_P2;Temp;Humidity;BMP_temperature;BMP_pressure;BME280_temperature;BME280_humidity;BME280_pressure;Samples;Min_cycle;Max_cycle;Signal;HPM_P1;HPM_P2
2022/05/24 00:00:43;;;;;;;;;;;;;;;18.58;100.00;96901.41;5142956;28;19959;-65
2022/05/24 00:03:09;;;;;;;;;;;;;;;18.11;100.00;96906.44;5140885;28;19941;-65
2022/05/24 00:05:36;;;;;;;;;;;;;;;18.10;100.00;96915.69;5139424;28;19951;-65
2022/05/24 00:08:03;;;;;;;;;;;;;;;18.19;100.00;96906.34;5140689;28;19979;-65
2022/05/24 00:10:31;;;;;;;;;;;;;;;18.19;100.00;96900.94;5143503;28;19954;-65
2022/05/24 00:13:00;;;;;;;;;;;;;;;18.11;100.00;96901.03;5143258;28;19930;-65
2022/05/24 00:15:29;;;;;;;;;;;;;;;18.00;100.00;96891.78;5140198;28;19962;-65
2022/05/24 00:17:56;;;;;;;;;;;;;;;18.13;100.00;96893.38;5139562;28;19924;-65
2022/05/24 00:20:25;;;;;;;;;;;;;;;18.06;100.00;96901.25;5131295;28;19923;-65
2022/05/24 00:22:52;;;;;;;;;;;;;;;18.09;100.00;96901.38;5139369;28;20439;-65
2022/05/24 00:25:18;;;;;;;;;;;;;;;18.37;100.00;96908.81;5142771;28;19927;-66
2022/05/24 00:27:45;;;;;;;;;;;;;;;18.51;100.00;96901.97;5142929;28;19926;-65
2022/05/24 00:30:14;;;;;;;;;;;;;;;18.39;100.00;96898.47;5140202;28;19999;-64
2022/05/24 00:32:40;;;;;;;;;;;;;;;18.44;100.00;96906.38;5139288;28;19991;-65
2022/05/24 00:35:07;;;;;;;;;;;;;;;18.44;100.00;96893.63;5141025;28;19987;-66
2022/05/24 00:37:34;;;;;;;;;;;;;;;18.43;100.00;96894.75;5143320;28;19990;-65
2022/05/24 00:40:01;;;;;;;;;;;;;;;18.39;100.00;96899.25;5142485;28;19919;-65
2022/05/24 00:42:28;;;;;;;;;;;;;;;18.15;100.00;96889.22;5143426;28;19962;-65
2022/05/24 00:45:00;;;;;;;;;;;;;;;18.11;100.00;96887.50;5142592;28;20026;-65
2022/05/24 00:47:31;;;;;;;;;;;;;;;17.96;100.00;96894.38;5131539;28;19924;-66
2022/05/24 00:49:59;;;;;;;;;;;;;;;18.08;100.00;96891.69;5139248;28;19923;-65
2022/05/24 00:52:28;;;;;;;;;;;;;;;17.85;100.00;96898.63;5144134;27;19981;-67
2022/05/24 00:54:54;;;;;;;;;;;;;;;17.83;100.00;96898.16;5146402;27;19919;-65
2022/05/24 00:57:27;;;;;;;;;;;;;;;17.65;100.00;96894.84;5142843;27;19984;-65
2022/05/24 00:59:55;;;;;;;;;;;;;;;17.62;100.00;96886.63;5142445;27;19927;-65
2022/05/24 01:02:21;;;;;;;;;;;;;;;17.67;100.00;96891.81;5134271;27;19991;-65
2022/05/24 01:04:49;;;;;;;;;;;;;;;17.67;100.00;96889.13;5142558;27;19930;-65
2022/05/24 01:07:15;;;;;;;;;;;;;;;17.61;100.00;96890.44;5145022;27;19983;-65
2022/05/24 01:09:44;;;;;;;;;;;;;;;17.48;100.00;96889.59;5146068;27;19930;-65
2022/05/24 01:12:14;;;;;;;;;;;;;;;17.29;100.00;96881.19;5144438;27;19979;-65
2022/05/24 01:14:40;;;;;;;;;;;;;;;17.31;100.00;96888.94;5146110;27;19979;-64
2022/05/24 01:17:07;;;;;;;;;;;;;;;17.65;100.00;96894.84;5144587;27;19927;-65
2022/05/24 01:19:36;;;;;;;;;;;;;;;17.87;100.00;96892.88;5142538;27;19951;-66
2022/05/24 01:22:10;;;;;;;;;;;;;;;17.83;100.00;96892.75;5142986;27;19967;-66
2022/05/24 01:24:41;;;;;;;;;;;;;;;17.82;100.00;96891.19;5127904;27;19928;-65
2022/05/24 01:27:09;;;;;;;;;;;;;;;17.78;100.00;96888.38;5144064;27;19951;-66
2022/05/24 01:29:38;;;;;;;;;;;;;;;17.77;100.00;96892.19;5142197;27;19955;-66
2022/05/24 01:37:34;;;;;;;;;;;;;;;17.97;100.00;96890.56;5135365;27;19924;-67
2022/05/24 01:40:00;;;;;;;;;;;;;;;17.98;100.00;96885.94;5142187;27;19920;-65
2022/05/24 01:42:29;;;;;;;;;;;;;;;18.03;100.00;96881.09;5145336;27;19933;-64
2022/05/24 01:44:59;;;;;;;;;;;;;;;18.25;100.00;96880.69;5145244;27;19923;-65
2022/05/24 01:47:28;;;;;;;;;;;;;;;18.21;100.00;96885.16;5133807;27;19980;-65
2022/05/24 01:49:58;;;;;;;;;;;;;;;17.98;100.00;96892.09;5141311;27;19920;-64
2022/05/24 01:52:27;;;;;;;;;;;;;;;17.67;100.00;96898.00;5133597;27;19942;-65
2022/05/24 01:54:58;;;;;;;;;;;;;;;17.62;100.00;96900.13;5141548;27;19930;-65
2022/05/24 01:57:26;;;;;;;;;;;;;;;17.99;100.00;96901.78;5133424;27;19923;-65
2022/05/24 01:59:56;;;;;;;;;;;;;;;18.40;100.00;96898.13;5141321;27;19991;-65
2022/05/24 02:02:22;;;;;;;;;;;;;;;20.06;100.00;96883.25;5133641;27;19980;-64
2022/05/24 02:04:49;;;;;;;;;;;;;;;21.28;100.00;96871.03;5140742;27;19923;-63
2022/05/24 02:07:17;;;;;;;;;;;;;;;21.08;100.00;96863.97;5144378;27;19975;-64
2022/05/24 02:09:48;;;;;;;;;;;;;;;20.39;100.00;96862.78;5145385;27;19953;-64
2022/05/24 02:12:19;;;;;;;;;;;;;;;19.84;100.00;96858.31;5143689;27;19924;-65
2022/05/24 02:14:51;;;;;;;;;;;;;;;19.76;100.00;96853.06;5144990;27;19973;-63
2022/05/24 02:17:21;;;;;;;;;;;;;;;19.01;100.00;96863.72;5142049;27;20006;-64
2022/05/24 02:19:48;;;;;;;;;;;;;;;19.32;100.00;96865.75;5141080;27;19974;-63
2022/05/24 02:22:17;;;;;;;;;;;;;;;19.10;100.00;96867.06;5143510;27;20006;-64
2022/05/24 02:24:43;;;;;;;;;;;;;;;18.73;100.00;96873.69;5144191;27;19987;-65
2022/05/24 02:27:09;;;;;;;;;;;;;;;18.25;100.00;96871.78;5142138;27;20025;-64
2022/05/24 02:29:36;;;;;;;;;;;;;;;18.10;100.00;96857.03;5140953;27;19919;-64
2022/05/24 02:32:03;;;;;;;;;;;;;;;19.30;100.00;96858.00;5141674;27;19992;-65
2022/05/24 02:34:31;;;;;;;;;;;;;;;21.56;100.00;96845.56;5144639;27;19919;-65
2022/05/24 02:36:57;;;;;;;;;;;;;;;22.20;100.00;96851.00;5144128;27;19970;-65
2022/05/24 02:39:23;;;;;;;;;;;;;;;22.38;100.00;96846.63;5140910;27;19962;-65
2022/05/24 02:41:49;;;;;;;;;;;;;;;22.50;100.00;96843.69;5140643;27;19984;-66
2022/05/24 02:44:16;;;;;;;;;;;;;;;22.21;100.00;96841.69;5143261;27;20434;-65
2022/05/24 02:46:43;;;;;;;;;;;;;;;21.05;100.00;96839.44;5144350;27;19926;-65
2022/05/24 02:49:10;;;;;;;;;;;;;;;19.94;100.00;96851.59;5142190;27;19980;-65
2022/05/24 02:51:38;;;;;;;;;;;;;;;19.13;100.00;96852.06;5140691;27;19955;-67
2022/05/24 02:54:05;;;;;;;;;;;;;;;18.77;100.00;96848.34;5141540;27;19923;-66
2022/05/24 02:56:31;;;;;;;;;;;;;;;19.34;100.00;96856.16;5144068;27;19975;-67
2022/05/24 02:58:58;;;;;;;;;;;;;;;19.44;100.00;96848.69;5143543;27;19923;-67
2022/05/24 03:01:25;;;;;;;;;;;;;;;19.30;100.00;96857.22;5140214;27;19930;-65
2022/05/24 03:03:52;;;;;;;;;;;;;;;19.65;100.00;96852.00;5140479;27;19962;-67
2022/05/24 03:06:20;;;;;;;;;;;;;;;19.45;100.00;96853.00;5144168;27;19983;-65
2022/05/24 03:14:14;;;;;;;;;;;;;;;19.43;100.00;96852.56;5133360;27;20306;-66
2022/05/24 03:14:18;;;;;;;;;;;;;;;19.29;100.00;96851.00;5143300;27;19923;-65
2022/05/24 03:16:47;;;;;;;;;;;;;;;19.40;100.00;96849.38;5144245;27;19924;-66
2022/05/24 03:19:14;;;;;;;;;;;;;;;19.20;100.00;96847.66;5141833;27;19927;-66
2022/05/24 03:21:40;;;;;;;;;;;;;;;19.58;100.00;96854.50;5140598;27;19974;-66
2022/05/24 03:24:09;;;;;;;;;;;;;;;19.21;100.00;96845.75;5141595;27;19931;-66
2022/05/24 03:26:36;;;;;;;;;;;;;;;19.03;100.00;96850.66;5143963;27;19973;-66
2022/05/24 03:29:02;;;;;;;;;;;;;;;19.15;100.00;96847.13;5142814;27;19950;-65
2022/05/24 03:31:29;;;;;;;;;;;;;;;19.36;100.00;96853.91;5140007;27;19991;-65
2022/05/24 03:33:55;;;;;;;;;;;;;;;18.74;100.00;96854.44;5139707;27;20003;-65
2022/05/24 03:36:22;;;;;;;;;;;;;;;18.57;100.00;96851.19;5143322;27;19951;-66
2022/05/24 03:38:48;;;;;;;;;;;;;;;18.43;100.00;96848.00;5143558;27;19924;-66
2022/05/24 03:41:16;;;;;;;;;;;;;;;18.58;100.00;96836.53;5140751;27;19927;-67
2022/05/24 03:43:42;;;;;;;;;;;;;;;18.79;100.00;96840.66;5139847;27;19924;-65
2022/05/24 03:46:09;;;;;;;;;;;;;;;18.99;100.00;96844.34;5141570;27;19966;-65
2022/05/24 03:48:36;;;;;;;;;;;;;;;19.22;100.00;96839.97;5143241;27;19979;-66
2022/05/24 03:51:04;;;;;;;;;;;;;;;19.31;100.00;96854.13;5142278;27;19924;-66
2022/05/24 03:53:30;;;;;;;;;;;;;;;19.11;100.00;96843.50;5139782;28;19924;-66
2022/05/24 03:55:56;;;;;;;;;;;;;;;18.56;100.00;96847.69;5139592;28;19935;-65
2022/05/24 03:58:24;;;;;;;;;;;;;;;18.25;100.00;96850.94;5147441;27;19995;-66
2022/05/24 04:00:51;;;;;;;;;;;;;;;18.40;100.00;96857.59;5139501;28;19987;-67
2022/05/24 04:03:18;;;;;;;;;;;;;;;18.91;100.00;96858.78;5142535;28;19963;-66
2022/05/24 04:05:44;;;;;;;;;;;;;;;18.96;100.00;96863.19;5143013;28;19962;-65
2022/05/24 04:08:11;;;;;;;;;;;;;;;19.02;100.00;96864.50;5141101;28;19924;-66
2022/05/24 04:10:38;;;;;;;;;;;;;;;19.19;100.00;96854.19;5139576;28;19987;-65
2022/05/24 04:13:04;;;;;;;;;;;;;;;19.35;100.00;96857.75;5146307;28;20016;-66
2022/05/24 04:15:32;;;;;;;;;;;;;;;19.62;100.00;96852.69;5139458;28;20485;-66
2022/05/24 04:17:59;;;;;;;;;;;;;;;19.55;100.00;96857.91;5139730;28;20425;-66
2022/05/24 04:20:26;;;;;;;;;;;;;;;19.04;100.00;96857.63;5143154;28;19925;-66
2022/05/24 04:22:53;;;;;;;;;;;;;;;18.69;100.00;96851.94;5143527;28;19982;-65
2022/05/24 04:25:20;;;;;;;;;;;;;;;18.87;100.00;96863.31;5139890;28;19962;-67
2022/05/24 04:27:47;;;;;;;;;;;;;;;18.66;100.00;96851.84;5141922;27;19932;-65
2022/05/24 04:30:16;;;;;;;;;;;;;;;18.32;100.00;96858.47;5146048;27;20022;-65
2022/05/24 04:32:44;;;;;;;;;;;;;;;18.39;100.00;96858.69;5147219;27;19970;-65
2022/05/24 04:35:11;;;;;;;;;;;;;;;18.38;100.00;96851.75;5145083;27;19959;-65
2022/05/24 04:37:37;;;;;;;;;;;;;;;18.39;100.00;96866.81;5143584;27;19930;-66
2022/05/24 04:40:04;;;;;;;;;;;;;;;18.37;100.00;96860.97;5144315;27;19924;-65
2022/05/24 04:42:29;;;;;;;;;;;;;;;18.49;100.00;96868.28;5146945;27;19966;-65
2022/05/24 04:44:57;;;;;;;;;;;;;;;18.34;100.00;96878.66;5146859;27;19924;-66
2022/05/24 04:47:24;;;;;;;;;;;;;;;18.54;100.00;96876.19;5135022;27;19993;-66
2022/05/24 04:49:54;;;;;;;;;;;;;;;18.60;100.00;96885.66;5144192;27;19987;-66
2022/05/24 04:52:21;;;;;;;;;;;;;;;19.16;100.00;96881.16;5146815;27;20283;-65
2022/05/24 04:54:48;;;;;;;;;;;;;;;19.36;100.00;96878.28;5146676;27;19923;-66
2022/05/24 04:57:14;;;;;;;;;;;;;;;19.60;100.00;96879.31;5144182;27;19930;-67
2022/05/24 04:59:41;;;;;;;;;;;;;;;19.14;100.00;96884.22;5143118;27;19959;-66
2022/05/24 05:02:07;;;;;;;;;;;;;;;18.95;100.00;96875.13;5144839;27;19958;-66
2022/05/24 05:04:34;;;;;;;;;;;;;;;18.80;100.00;96885.53;5146983;27;19923;-66
2022/05/24 05:07:01;;;;;;;;;;;;;;;18.63;100.00;96874.94;5146073;27;19923;-67
2022/05/24 05:09:34;;;;;;;;;;;;;;;18.39;100.00;96866.81;5143309;27;19924;-66
2022/05/24 05:12:01;;;;;;;;;;;;;;;18.30;100.00;96876.94;5143326;27;19957;-66
2022/05/24 05:14:29;;;;;;;;;;;;;;;18.28;100.00;96877.31;5146243;27;19959;-66
2022/05/24 05:16:55;;;;;;;;;;;;;;;18.28;100.00;96893.53;5145993;27;20035;-66
2022/05/24 05:19:22;;;;;;;;;;;;;;;18.24;100.00;96899.91;5142216;27;19928;-65
2022/05/24 05:21:48;;;;;;;;;;;;;;;18.04;100.00;96906.97;5142455;27;20007;-67
2022/05/24 05:24:16;;;;;;;;;;;;;;;18.21;100.00;96906.00;5144904;27;19924;-65
2022/05/24 05:26:42;;;;;;;;;;;;;;;18.35;100.00;96903.78;5145791;27;19983;-65
2022/05/24 05:29:08;;;;;;;;;;;;;;;18.86;100.00;96902.31;5144060;27;19946;-65
2022/05/24 05:31:34;;;;;;;;;;;;;;;19.18;100.00;96901.34;5142500;27;19926;-65
2022/05/24 05:34:01;;;;;;;;;;;;;;;19.11;100.00;96905.75;5142568;27;19920;-66
2022/05/24 05:36:28;;;;;;;;;;;;;;;18.80;100.00;96909.06;5145847;27;19987;-66
2022/05/24 05:38:55;;;;;;;;;;;;;;;18.84;100.00;96915.41;5145430;27;19958;-66
2022/05/24 05:41:23;;;;;;;;;;;;;;;18.77;100.00;96917.88;5142134;27;19919;-66
2022/05/24 05:43:50;;;;;;;;;;;;;;;18.71;100.00;96920.03;5142046;27;19959;-65
2022/05/24 05:46:17;;;;;;;;;;;;;;;18.61;100.00;96930.50;5144719;27;20532;-66
2022/05/24 05:48:44;;;;;;;;;;;;;;;18.86;100.00;96923.94;5145487;27;20006;-71
2022/05/24 05:51:14;;;;;;;;;;;;;;;18.97;100.00;96916.94;5143178;27;19924;-66
2022/05/24 05:53:40;;;;;;;;;;;;;;;18.98;100.00;96923.13;5148359;27;19975;-67
2022/05/24 05:56:09;;;;;;;;;;;;;;;18.97;100.00;96913.47;5144732;27;19982;-66
2022/05/24 05:58:37;;;;;;;;;;;;;;;19.02;100.00;96924.84;5144035;27;20010;-66
2022/05/24 06:01:03;;;;;;;;;;;;;;;18.91;100.00;96921.00;5144976;27;19924;-67
2022/05/24 06:03:30;;;;;;;;;;;;;;;19.00;100.00;96915.47;5148246;27;19919;-66
2022/05/24 06:06:00;;;;;;;;;;;;;;;19.16;100.00;96917.13;5148078;27;19911;-66
2022/05/24 06:08:26;;;;;;;;;;;;;;;19.19;100.00;96924.56;5136536;27;19950;-66
2022/05/24 06:10:53;;;;;;;;;;;;;;;19.18;100.00;96916.78;5143470;27;19988;-66
2022/05/24 06:13:20;;;;;;;;;;;;;;;19.17;100.00;96918.72;5149156;27;19934;-66
2022/05/24 06:15:48;;;;;;;;;;;;;;;19.23;100.00;96925.47;5141762;27;19941;-65
2022/05/24 06:18:15;;;;;;;;;;;;;;;19.45;100.00;96921.47;5143972;27;19990;-67
2022/05/24 06:20:41;;;;;;;;;;;;;;;19.54;100.00;96924.81;5144875;27;19970;-67
2022/05/24 06:23:07;;;;;;;;;;;;;;;19.32;100.00;96928.81;5143469;27;19958;-65
2022/05/24 06:25:34;;;;;;;;;;;;;;;19.23;100.00;96919.25;5141476;27;19959;-67
2022/05/24 06:28:00;;;;;;;;;;;;;;;19.28;100.00;96927.16;5141540;27;19999;-66
2022/05/24 06:30:28;;;;;;;;;;;;;;;19.16;100.00;96936.06;5144697;27;20355;-66
2022/05/24 06:32:57;;;;;;;;;;;;;;;19.05;100.00;96937.69;5144825;27;19931;-67
2022/05/24 06:35:23;;;;;;;;;;;;;;;19.01;100.00;96934.06;5132824;27;19951;-65
2022/05/24 06:37:49;;;;;;;;;;;;;;;19.10;100.00;96923.91;5141036;27;20014;-65
2022/05/24 06:40:17;;;;;;;;;;;;;;;19.33;100.00;96935.03;5143507;27;19991;-65
2022/05/24 06:42:43;;;;;;;;;;;;;;;19.69;100.00;96932.22;5144467;27;19980;-66
2022/05/24 06:45:10;;;;;;;;;;;;;;;19.75;100.00;96930.03;5142389;27;20010;-66
2022/05/24 06:47:37;;;;;;;;;;;;;;;19.87;100.00;96927.25;5140925;27;19933;-65
2022/05/24 06:50:05;;;;;;;;;;;;;;;19.67;100.00;96920.16;5140866;27;19987;-66
2022/05/24 06:52:32;;;;;;;;;;;;;;;19.45;100.00;96931.50;5144273;27;19962;-65
2022/05/24 06:54:58;;;;;;;;;;;;;;;19.41;100.00;96931.41;5143552;27;19959;-65
2022/05/24 06:57:24;;;;;;;;;;;;;;;19.83;100.00;96923.69;5140340;27;19951;-67
2022/05/24 07:02:35;;;;;;;;;;;;;;;20.13;100.00;96941.13;5133776;27;19927;-66
2022/05/24 07:05:03;;;;;;;;;;;;;;;20.21;100.00;96934.75;5140782;27;19991;-66
2022/05/24 07:07:32;;;;;;;;;;;;;;;20.27;100.00;96936.09;5143673;27;19987;-66
2022/05/24 07:09:59;;;;;;;;;;;;;;;20.27;100.00;96938.81;5143362;27;19923;-67
2022/05/24 07:12:26;;;;;;;;;;;;;;;20.34;100.00;96940.91;5142632;27;19940;-66
2022/05/24 07:14:52;;;;;;;;;;;;;;;20.39;100.00;96957.72;5143826;27;19923;-65
2022/05/24 07:17:18;;;;;;;;;;;;;;;20.39;100.00;96959.66;5140692;27;19923;-65
2022/05/24 07:19:46;;;;;;;;;;;;;;;20.43;100.00;96958.59;5139827;27;19996;-65
2022/05/24 07:22:12;;;;;;;;;;;;;;;20.44;100.00;96960.19;5142173;27;19950;-66
2022/05/24 07:24:40;;;;;;;;;;;;;;;20.47;100.00;96966.81;5143277;27;20471;-67
2022/05/24 07:27:10;;;;;;;;;;;;;;;20.41;100.00;96970.94;5142331;27;19928;-66
2022/05/24 07:29:36;;;;;;;;;;;;;;;20.39;100.00;96981.34;5139890;27;19995;-67
2022/05/24 07:32:04;;;;;;;;;;;;;;;20.39;100.00;96984.81;5140327;27;19924;-67
2022/05/24 07:34:30;;;;;;;;;;;;;;;20.38;100.00;96988.69;5143366;27;19951;-65
2022/05/24 07:36:57;;;;;;;;;;;;;;;20.44;100.00;96987.31;5143527;27;19928;-67
2022/05/24 07:39:26;;;;;;;;;;;;;;;20.51;100.00;96989.41;5131528;27;19923;-65
2022/05/24 07:47:31;;;;;;;;;;;;;;;20.37;100.00;96997.16;5131527;27;19931;-66
2022/05/24 07:49:57;;;;;;;;;;;;;;;20.46;100.00;97008.63;5140032;27;19949;-65
2022/05/24 07:52:23;;;;;;;;;;;;;;;20.49;100.00;97002.50;5132384;27;19924;-65
2022/05/24 07:54:50;;;;;;;;;;;;;;;20.42;100.00;97008.53;5140811;27;19920;-65
2022/05/24 07:57:18;;;;;;;;;;;;;;;20.32;100.00;97009.06;5143604;28;19971;-66
2022/05/24 07:59:47;;;;;;;;;;;;;;;20.31;100.00;97012.91;5144504;28;19920;-65
2022/05/24 08:02:14;;;;;;;;;;;;;;;20.13;100.00;97018.97;5143207;27;19923;-65
2022/05/24 08:04:40;;;;;;;;;;;;;;;20.13;100.00;97019.75;5144879;27;19919;-66
2022/05/24 08:07:06;;;;;;;;;;;;;;;20.12;100.00;97015.44;5145449;27;19928;-67
2022/05/24 08:09:33;;;;;;;;;;;;;;;19.87;100.00;97009.34;5147686;27;19944;-66
2022/05/24 08:11:59;;;;;;;;;;;;;;;20.07;100.00;97014.91;5145689;27;19980;-67
2022/05/24 08:14:27;;;;;;;;;;;;;;;19.94;100.00;97025.00;5147307;27;20030;-66
2022/05/24 08:16:53;;;;;;;;;;;;;;;20.10;100.00;97031.28;5147346;27;19982;-66
2022/05/24 08:19:19;;;;;;;;;;;;;;;20.21;100.00;97028.88;5144246;27;19951;-66
2022/05/24 08:21:46;;;;;;;;;;;;;;;20.30;100.00;97038.44;5143609;27;19919;-67
2022/05/24 08:24:12;;;;;;;;;;;;;;;20.39;100.00;97036.34;5145603;27;19928;-65
2022/05/24 08:26:39;;;;;;;;;;;;;;;20.32;100.00;97035.38;5147305;27;19923;-66
2022/05/24 08:29:05;;;;;;;;;;;;;;;20.41;100.00;97034.09;5145842;27;19923;-66
2022/05/24 08:31:34;;;;;;;;;;;;;;;20.38;100.00;97047.56;5143400;27;19928;-66
2022/05/24 08:34:01;;;;;;;;;;;;;;;20.24;100.00;97042.50;5143766;27;19924;-66
2022/05/24 08:36:27;;;;;;;;;;;;;;;20.32;100.00;97047.03;5147025;27;19928;-66
2022/05/24 08:38:53;;;;;;;;;;;;;;;20.34;100.00;97054.81;5146961;27;20018;-66
2022/05/24 08:41:22;;;;;;;;;;;;;;;20.30;100.00;97056.66;5147165;27;19946;-65
2022/05/24 08:43:56;;;;;;;;;;;;;;;20.33;100.00;97064.84;5149143;27;19947;-65
2022/05/24 08:49:15;;;;;;;;;;;;;;;20.38;100.00;97085.53;5152121;27;19962;-66
2022/05/24 08:51:43;;;;;;;;;;;;;;;20.38;100.00;97088.25;5150007;27;19951;-66
2022/05/24 08:54:11;;;;;;;;;;;;;;;20.30;100.00;97089.19;5149299;27;19999;-66
2022/05/24 08:56:39;;;;;;;;;;;;;;;20.22;100.00;97088.16;5147356;27;19927;-66
2022/05/24 08:59:10;;;;;;;;;;;;;;;20.15;100.00;97089.88;5145568;27;19926;-65
2022/05/24 09:01:36;;;;;;;;;;;;;;;20.31;100.00;97093.44;5143457;27;19979;-65
2022/05/24 09:04:04;;;;;;;;;;;;;;;20.30;100.00;97092.66;5143864;27;20346;-67
2022/05/24 09:06:39;;;;;;;;;;;;;;;20.37;100.00;97103.72;5146873;27;20093;-68
2022/05/24 09:09:12;;;;;;;;;;;;;;;20.34;100.00;97109.81;5145407;27;19927;-67
2022/05/24 09:11:45;;;;;;;;;;;;;;;20.32;100.00;97101.25;5143120;27;19931;-67
2022/05/24 09:14:13;;;;;;;;;;;;;;;20.39;100.00;97109.56;5143001;27;19927;-66
2022/05/24 09:16:47;;;;;;;;;;;;;;;20.38;100.00;97105.31;5146566;27;19995;-65
2022/05/24 09:19:16;;;;;;;;;;;;;;;20.41;100.00;97114.66;5144042;27;19930;-67
2022/05/24 09:21:47;;;;;;;;;;;;;;;20.31;100.00;97121.38;5142887;27;19995;-65
2022/05/24 09:24:18;;;;;;;;;;;;;;;20.24;100.00;97115.69;5145011;27;19952;-65
2022/05/24 09:27:03;;;;;;;;;;;;;;;20.10;100.00;97122.66;5146652;27;19991;-66
2022/05/24 09:29:31;;;;;;;;;;;;;;;20.01;100.00;97116.56;5135414;27;19924;-66
2022/05/24 09:31:57;;;;;;;;;;;;;;;20.07;100.00;97121.41;5142761;27;19976;-66
2022/05/24 09:34:29;;;;;;;;;;;;;;;20.10;100.00;97126.16;5134491;27;19983;-66
2022/05/24 09:36:58;;;;;;;;;;;;;;;20.16;100.00;97130.19;5142459;27;19980;-67
2022/05/24 09:39:28;;;;;;;;;;;;;;;20.24;100.00;97134.69;5129966;27;19987;-65
2022/05/24 09:41:56;;;;;;;;;;;;;;;20.24;100.00;97133.91;5138274;27;19924;-66
2022/05/24 09:44:22;;;;;;;;;;;;;;;20.35;100.00;97132.31;5145886;27;19923;-66
2022/05/24 09:46:49;;;;;;;;;;;;;;;20.39;100.00;97120.41;5145876;27;19994;-66
2022/05/24 09:49:22;;;;;;;;;;;;;;;20.37;100.00;97117.28;5143197;27;19970;-66
2022/05/24 09:51:48;;;;;;;;;;;;;;;20.44;100.00;97119.41;5142222;27;19930;-66
2022/05/24 09:54:18;;;;;;;;;;;;;;;20.34;100.00;97128.81;5144689;27;19991;-66
2022/05/24 09:56:59;;;;;;;;;;;;;;;20.30;100.00;97130.63;5145768;27;19923;-66
2022/05/24 09:59:26;;;;;;;;;;;;;;;20.35;100.00;97119.56;5133916;27;20196;-66
2022/05/24 10:01:53;;;;;;;;;;;;;;;20.33;100.00;97112.91;5141861;27;19927;-65
2022/05/24 10:04:27;;;;;;;;;;;;;;;20.40;100.00;97113.88;5145337;27;19952;-66
2022/05/24 10:06:55;;;;;;;;;;;;;;;20.54;100.00;97124.34;5145389;27;20517;-66
2022/05/24 10:09:35;;;;;;;;;;;;;;;20.45;100.00;97126.41;5142033;27;19943;-66
2022/05/24 10:12:06;;;;;;;;;;;;;;;20.20;100.00;97141.94;5142193;27;20054;-66
2022/05/24 10:14:35;;;;;;;;;;;;;;;20.27;100.00;97144.88;5145375;27;19951;-66
2022/05/24 10:17:05;;;;;;;;;;;;;;;20.38;100.00;97143.25;5144336;27;19923;-66
2022/05/24 10:19:38;;;;;;;;;;;;;;;20.34;100.00;97142.38;5141527;27;19987;-66
2022/05/24 10:22:09;;;;;;;;;;;;;;;20.32;100.00;97146.56;5142036;27;20082;-66
2022/05/24 10:24:44;;;;;;;;;;;;;;;20.43;100.00;97144.94;5143692;27;19920;-67
2022/05/24 10:27:15;;;;;;;;;;;;;;;20.54;100.00;97169.66;5142993;27;20361;-67
2022/05/24 10:29:49;;;;;;;;;;;;;;;20.54;100.00;97166.94;5141639;27;19930;-66
2022/05/24 10:40:43;;;;;;;;;;;;;;;20.07;100.00;97172.91;5134993;27;19945;-65
2022/05/24 10:43:16;;;;;;;;;;;;;;;20.35;100.00;97167.56;5149471;27;19981;-65
2022/05/24 10:45:52;;;;;;;;;;;;;;;20.10;100.00;97174.94;5141153;27;19955;-65
2022/05/24 10:48:23;;;;;;;;;;;;;;;20.30;100.00;97184.84;5144128;27;19964;-66
2022/05/24 10:50:52;;;;;;;;;;;;;;;20.35;100.00;97181.91;5144575;27;19923;-65
2022/05/24 10:53:23;;;;;;;;;;;;;;;20.41;100.00;97177.03;5141810;27;20533;-66
2022/05/24 10:55:57;;;;;;;;;;;;;;;20.26;100.00;97183.97;5141356;27;19991;-65
2022/05/24 10:58:25;;;;;;;;;;;;;;;20.21;100.00;97186.88;5133091;27;19924;-66
2022/05/24 11:00:53;;;;;;;;;;;;;;;20.37;100.00;97195.91;5141148;27;19987;-67
2022/05/24 11:03:20;;;;;;;;;;;;;;;20.42;100.00;97203.03;5144020;27;19930;-66
2022/05/24 11:05:48;;;;;;;;;;;;;;;20.40;100.00;97203.38;5144286;27;20014;-65
2022/05/24 11:08:30;;;;;;;;;;;;;;;20.54;100.00;97200.28;5143074;27;19987;-65
2022/05/24 11:10:59;;;;;;;;;;;;;;;20.29;100.00;97194.13;5141856;27;19949;-67
2022/05/24 11:13:33;;;;;;;;;;;;;;;20.30;100.00;97214.69;5134395;27;19987;-67
2022/05/24 11:16:05;;;;;;;;;;;;;;;20.09;100.00;97237.63;5140372;27;21478;-66
2022/05/24 11:18:31;;;;;;;;;;;;;;;19.97;100.00;97235.72;5144201;27;19924;-66
2022/05/24 11:21:01;;;;;;;;;;;;;;;19.70;100.00;97233.69;5143824;27;20015;-65
2022/05/24 11:23:31;;;;;;;;;;;;;;;19.80;100.00;97236.75;5140527;27;19966;-65
2022/05/24 11:26:02;;;;;;;;;;;;;;;19.85;100.00;97227.59;5139984;27;19927;-66
2022/05/24 11:28:32;;;;;;;;;;;;;;;19.96;100.00;97227.94;5132660;27;19934;-65
2022/05/24 11:31:20;;;;;;;;;;;;;;;20.04;100.00;97232.44;5140501;27;19938;-66
2022/05/24 11:33:48;;;;;;;;;;;;;;;19.83;100.00;97229.84;5144332;27;19991;-66
2022/05/24 11:36:23;;;;;;;;;;;;;;;19.81;100.00;97238.31;5141865;27;19923;-66
2022/05/24 11:38:50;;;;;;;;;;;;;;;19.66;100.00;97243.59;5140682;27;19930;-66
2022/05/24 11:41:27;;;;;;;;;;;;;;;19.78;100.00;97254.44;5143080;27;19923;-66
2022/05/24 11:43:59;;;;;;;;;;;;;;;19.82;100.00;97256.16;5142400;27;20053;-66
2022/05/24 11:46:52;;;;;;;;;;;;;;;19.70;100.00;97244.53;5132154;27;20032;-66
2022/05/24 11:49:52;;;;;;;;;;;;;;;19.64;100.00;97226.91;5117320;27;19966;-66
2022/05/24 11:52:37;;;;;;;;;;;;;;;19.62;100.00;97229.19;5140430;27;19971;-66
2022/05/24 11:55:04;;;;;;;;;;;;;;;19.53;100.00;97225.78;5140421;27;19978;-66
2022/05/24 11:57:40;;;;;;;;;;;;;;;19.03;100.00;97229.50;5143261;27;19931;-66
2022/05/24 12:00:08;;;;;;;;;;;;;;;18.71;100.00;97208.63;5141725;28;19931;-66
2022/05/24 12:08:45;;;;;;;;;;;;;;;19.05;100.00;97227.22;5091466;28;19996;-65
2022/05/24 12:11:17;;;;;;;;;;;;;;;19.29;100.00;97230.00;5130917;28;19970;-66
2022/05/24 12:13:58;;;;;;;;;;;;;;;19.61;100.00;97227.59;5145354;28;19956;-65
2022/05/24 12:16:48;;;;;;;;;;;;;;;19.79;100.00;97226.22;5131953;28;19973;-65
2022/05/24 12:19:33;;;;;;;;;;;;;;;19.98;100.00;97229.16;5131246;28;19998;-66
2022/05/24 12:22:01;;;;;;;;;;;;;;;20.05;100.00;97237.53;5143025;28;19923;-65
2022/05/24 12:24:52;;;;;;;;;;;;;;;20.03;100.00;97247.91;5139790;28;19923;-66
2022/05/24 12:27:23;;;;;;;;;;;;;;;19.69;100.00;97248.34;5142783;28;19953;-67
2022/05/24 12:29:53;;;;;;;;;;;;;;;19.80;100.00;97253.00;5143478;28;19928;-66
2022/05/24 12:32:21;;;;;;;;;;;;;;;19.91;100.00;97270.38;5140426;28;19924;-65
2022/05/24 12:34:47;;;;;;;;;;;;;;;19.81;100.00;97264.59;5139814;28;19991;-66
2022/05/24 12:37:19;;;;;;;;;;;;;;;20.13;100.00;97274.56;5141438;28;19991;-67
2022/05/24 12:40:00;;;;;;;;;;;;;;;20.17;100.00;97263.84;5142778;28;19956;-65
2022/05/24 12:42:27;;;;;;;;;;;;;;;20.15;100.00;97279.63;5133881;28;19967;-67
2022/05/24 12:44:55;;;;;;;;;;;;;;;20.14;100.00;97281.56;5143021;28;19988;-67
2022/05/24 12:47:22;;;;;;;;;;;;;;;20.21;100.00;97299.97;5139513;27;19995;-66
2022/05/24 12:49:54;;;;;;;;;;;;;;;20.31;100.00;97302.25;5143226;27;20021;-66
2022/05/24 12:52:22;;;;;;;;;;;;;;;20.16;100.00;97295.56;5146429;27;20006;-66
2022/05/24 12:54:49;;;;;;;;;;;;;;;19.97;100.00;97302.66;5147091;27;19990;-66
2022/05/24 12:57:17;;;;;;;;;;;;;;;20.18;100.00;97306.84;5144378;27;19945;-65
2022/05/24 12:59:44;;;;;;;;;;;;;;;20.13;100.00;97300.88;5143199;27;19947;-65
2022/05/24 13:02:22;;;;;;;;;;;;;;;20.11;100.00;97301.22;5144345;27;19926;-66
2022/05/24 13:04:49;;;;;;;;;;;;;;;19.82;100.00;97302.22;5146315;27;19927;-65
2022/05/24 13:07:35;;;;;;;;;;;;;;;19.78;100.00;97303.22;5143411;27;19919;-68
2022/05/24 13:10:01;;;;;;;;;;;;;;;19.71;100.00;97300.28;5142790;27;19923;-66
2022/05/24 13:12:28;;;;;;;;;;;;;;;20.02;100.00;97295.13;5141968;27;20002;-66
2022/05/24 13:14:56;;;;;;;;;;;;;;;19.92;100.00;97292.84;5142437;27;19924;-66
2022/05/24 13:17:25;;;;;;;;;;;;;;;19.94;100.00;97290.59;5145794;27;19991;-68